Time;durP1;ratioP1;P1;durP2;ratioP2;P2;SDS_P1;SDS_P2;PMS_P1;PMS_P2;Temp;Humidity;BMP_temperature;BMP_pressure;BME280_temperature;BME280_humidity;BME280_pressure;Samples;Min_cycle;Max_cycle;Signal;HPM_P1;HPM_P2
2022/11/09 00:01:17;;;;;;;46.50;26.70;;;;;;;;;;738172;190;912585;-75
2022/11/09 00:03:43;;;;;;;49.03;26.87;;;;;;;;;;733773;190;918968;-75
2022/11/09 00:06:09;;;;;;;44.53;27.13;;;;;;;;;;727948;191;922373;-74
2022/11/09 00:08:36;;;;;;;54.40;26.57;;;;;;;;;;721412;190;919959;-74
2022/11/09 00:11:01;;;;;;;50.03;27.90;;;;;;;;;;740259;189;920008;-75
2022/11/09 00:13:27;;;;;;;45.83;26.55;;;;;;;;;;731892;191;925001;-75
2022/11/09 00:15:53;;;;;;;50.83;26.57;;;;;;;;;;735077;191;816659;-74
2022/11/09 00:18:19;;;;;;;44.50;26.70;;;;;;;;;;739052;191;918898;-75
2022/11/09 00:20:45;;;;;;;47.40;26.43;;;;;;;;;;732266;191;919388;-74
2022/11/09 00:23:11;;;;;;;38.93;25.27;;;;;;;;;;734718;190;918674;-75
2022/11/09 00:25:37;;;;;;;53.23;25.40;;;;;;;;;;739571;191;818884;-74
2022/11/09 00:28:02;;;;;;;48.90;28.63;;;;;;;;;;732672;191;919659;-74
2022/11/09 00:30:29;;;;;;;47.77;28.00;;;;;;;;;;722279;191;918171;-75
2022/11/09 00:32:54;;;;;;;44.53;27.13;;;;;;;;;;730989;190;919021;-75
2022/11/09 00:35:20;;;;;;;43.43;26.93;;;;;;;;;;734525;190;919294;-75
2022/11/09 00:37:46;;;;;;;45.37;26.67;;;;;;;;;;731917;191;918396;-75
2022/11/09 00:40:12;;;;;;;43.33;28.60;;;;;;;;;;736759;191;917211;-75
2022/11/09 00:42:38;;;;;;;45.77;27.37;;;;;;;;;;738295;191;918988;-75
2022/11/09 00:45:04;;;;;;;54.13;30.23;;;;;;;;;;729308;190;915341;-74
2022/11/09 00:47:29;;;;;;;49.65;26.55;;;;;;;;;;722209;191;916828;-74
2022/11/09 00:49:55;;;;;;;46.53;26.90;;;;;;;;;;732264;191;916600;-75
2022/11/09 00:52:21;;;;;;;42.97;26.00;;;;;;;;;;734691;191;916044;-74
2022/11/09 00:54:47;;;;;;;52.80;27.60;;;;;;;;;;732757;188;919525;-74
2022/11/09 00:57:13;;;;;;;48.90;26.80;;;;;;;;;;733942;191;919211;-75
2022/11/09 00:59:39;;;;;;;49.17;26.63;;;;;;;;;;726662;188;919686;-74
2022/11/09 01:02:04;;;;;;;45.42;25.23;;;;;;;;;;731414;190;905379;-75
2022/11/09 01:04:30;;;;;;;48.30;28.90;;;;;;;;;;732892;189;919946;-75
2022/11/09 01:06:56;;;;;;;46.93;26.40;;;;;;;;;;737060;189;918876;-75
2022/11/09 01:09:22;;;;;;;49.13;28.83;;;;;;;;;;736266;188;918750;-74
2022/11/09 01:11:48;;;;;;;47.70;28.27;;;;;;;;;;736349;189;919410;-74
2022/11/09 01:14:14;;;;;;;52.90;27.77;;;;;;;;;;738075;188;918914;-73
2022/11/09 01:16:39;;;;;;;54.53;28.63;;;;;;;;;;731312;191;919213;-74
2022/11/09 01:19:05;;;;;;;49.57;26.57;;;;;;;;;;737912;190;816121;-74
2022/11/09 01:21:31;;;;;;;49.90;29.10;;;;;;;;;;731625;190;920202;-75
2022/11/09 01:23:57;;;;;;;50.90;28.50;;;;;;;;;;730952;189;919029;-75
2022/11/09 01:26:23;;;;;;;45.17;26.33;;;;;;;;;;724849;190;1017180;-75
2022/11/09 01:28:49;;;;;;;43.53;25.33;;;;;;;;;;731132;189;915716;-75
2022/11/09 01:31:15;;;;;;;49.93;29.13;;;;;;;;;;738393;190;915697;-75
2022/11/09 01:33:40;;;;;;;46.30;27.87;;;;;;;;;;733196;189;915829;-74
2022/11/09 01:36:06;;;;;;;55.80;30.77;;;;;;;;;;730132;189;918363;-74
2022/11/09 01:38:32;;;;;;;47.90;27.40;;;;;;;;;;739096;188;716061;-74
2022/11/09 01:40:58;;;;;;;50.90;28.20;;;;;;;;;;728390;190;917536;-74
2022/11/09 01:43:24;;;;;;;49.40;28.27;;;;;;;;;;728887;190;918699;-75
2022/11/09 01:45:53;;;;;;;49.03;28.00;;;;;;;;;;734586;190;816777;-74
2022/11/09 01:48:20;;;;;;;50.27;29.30;;;;;;;;;;707790;198;816407;-75
2022/11/09 01:50:48;;;;;;;52.33;28.33;;;;;;;;;;730836;190;814187;-74
2022/11/09 01:53:14;;;;;;;48.23;30.50;;;;;;;;;;730499;190;914468;-75
2022/11/09 01:55:39;;;;;;;52.07;31.03;;;;;;;;;;735191;191;919106;-75
2022/11/09 01:58:05;;;;;;;48.60;28.27;;;;;;;;;;732624;190;799363;-74
2022/11/09 02:00:31;;;;;;;52.63;29.60;;;;;;;;;;734304;189;1021905;-75
2022/11/09 02:02:57;;;;;;;50.70;29.58;;;;;;;;;;736850;190;918495;-75
2022/11/09 02:05:23;;;;;;;47.53;27.83;;;;;;;;;;732644;191;911307;-75
2022/11/09 02:07:49;;;;;;;50.40;28.20;;;;;;;;;;728327;189;918971;-76
2022/11/09 02:10:17;;;;;;;59.57;28.17;;;;;;;;;;737454;190;918706;-75
2022/11/09 02:12:43;;;;;;;46.67;28.20;;;;;;;;;;736602;190;917591;-75
2022/11/09 02:15:09;;;;;;;51.07;30.50;;;;;;;;;;728955;189;918644;-74
2022/11/09 02:17:35;;;;;;;49.90;27.07;;;;;;;;;;736989;189;919300;-75
2022/11/09 02:20:02;;;;;;;51.97;28.50;;;;;;;;;;735759;190;1017435;-75
2022/11/09 02:22:27;;;;;;;56.47;29.77;;;;;;;;;;732986;189;916818;-76
2022/11/09 02:24:53;;;;;;;50.28;28.25;;;;;;;;;;731957;190;919403;-75
2022/11/09 02:27:19;;;;;;;60.30;31.67;;;;;;;;;;736468;190;816760;-75
2022/11/09 02:29:44;;;;;;;51.57;29.27;;;;;;;;;;734353;189;918633;-75
2022/11/09 02:32:16;;;;;;;51.17;28.17;;;;;;;;;;735563;191;917833;-75
2022/11/09 02:34:42;;;;;;;51.20;29.03;;;;;;;;;;733475;190;817188;-75
2022/11/09 02:37:08;;;;;;;53.77;29.40;;;;;;;;;;734416;190;919336;-74
2022/11/09 02:39:34;;;;;;;53.17;28.40;;;;;;;;;;730271;190;1021158;-74
2022/11/09 02:41:59;;;;;;;53.30;28.97;;;;;;;;;;731072;190;919432;-76
2022/11/09 02:44:25;;;;;;;51.35;27.30;;;;;;;;;;738039;190;815412;-75
2022/11/09 02:46:51;;;;;;;49.30;27.33;;;;;;;;;;733982;190;939244;-75
2022/11/09 02:49:17;;;;;;;46.27;27.87;;;;;;;;;;732650;187;827726;-76
2022/11/09 02:51:43;;;;;;;54.57;29.83;;;;;;;;;;735927;190;918465;-76
2022/11/09 02:54:09;;;;;;;50.80;28.03;;;;;;;;;;734200;188;917562;-75
2022/11/09 02:56:35;;;;;;;52.40;28.97;;;;;;;;;;733433;190;919327;-75
2022/11/09 02:59:02;;;;;;;51.10;27.87;;;;;;;;;;733919;190;916767;-75
2022/11/09 03:01:26;;;;;;;53.17;27.37;;;;;;;;;;733352;190;917562;-75
2022/11/09 03:03:52;;;;;;;50.20;29.13;;;;;;;;;;731209;190;919742;-75
2022/11/09 03:06:18;;;;;;;47.50;28.23;;;;;;;;;;733926;190;919656;-75
2022/11/09 03:08:44;;;;;;;54.00;27.37;;;;;;;;;;734605;189;918725;-75
2022/11/09 03:11:10;;;;;;;45.83;25.87;;;;;;;;;;734074;190;1020171;-75
2022/11/09 03:13:36;;;;;;;47.60;27.57;;;;;;;;;;734167;190;935180;-75
2022/11/09 03:16:02;;;;;;;43.03;25.03;;;;;;;;;;739308;190;816424;-74
2022/11/09 03:18:28;;;;;;;48.27;28.20;;;;;;;;;;732488;190;938033;-75
2022/11/09 03:20:54;;;;;;;51.57;28.53;;;;;;;;;;732806;191;919768;-76
2022/11/09 03:23:20;;;;;;;51.23;29.50;;;;;;;;;;731164;191;918111;-75
2022/11/09 03:25:46;;;;;;;47.15;26.48;;;;;;;;;;738017;190;816278;-75
2022/11/09 03:28:12;;;;;;;52.63;29.00;;;;;;;;;;730968;189;918906;-76
2022/11/09 03:30:38;;;;;;;41.90;26.00;;;;;;;;;;726745;190;919204;-75
2022/11/09 03:33:04;;;;;;;47.37;26.47;;;;;;;;;;740075;190;918418;-75
2022/11/09 03:35:30;;;;;;;54.63;28.50;;;;;;;;;;728534;191;815940;-76
2022/11/09 03:37:55;;;;;;;55.97;30.07;;;;;;;;;;724987;191;918555;-75
2022/11/09 03:40:21;;;;;;;50.07;28.70;;;;;;;;;;726085;190;918861;-74
2022/11/09 03:42:47;;;;;;;50.10;27.63;;;;;;;;;;727700;190;917739;-75
2022/11/09 03:45:13;;;;;;;55.23;30.50;;;;;;;;;;735025;190;817080;-75
2022/11/09 03:47:39;;;;;;;48.40;27.80;;;;;;;;;;732696;190;919711;-75
2022/11/09 03:50:05;;;;;;;52.47;30.30;;;;;;;;;;739078;191;817145;-76
2022/11/09 03:52:31;;;;;;;46.43;27.27;;;;;;;;;;735504;190;817255;-75
2022/11/09 03:54:57;;;;;;;53.50;28.30;;;;;;;;;;729617;187;919245;-75
2022/11/09 03:57:23;;;;;;;51.87;28.00;;;;;;;;;;728697;190;917839;-74
2022/11/09 03:59:49;;;;;;;51.20;26.93;;;;;;;;;;724322;191;915804;-75
2022/11/09 04:02:15;;;;;;;46.03;27.30;;;;;;;;;;733157;191;916771;-75
2022/11/09 04:04:40;;;;;;;52.00;27.83;;;;;;;;;;738974;190;915701;-75
2022/11/09 04:07:06;;;;;;;44.27;27.60;;;;;;;;;;734561;190;916609;-74
2022/11/09 04:09:32;;;;;;;44.57;26.97;;;;;;;;;;728288;188;916539;-74
2022/11/09 04:11:58;;;;;;;50.17;28.17;;;;;;;;;;729144;191;918878;-76
2022/11/09 04:14:24;;;;;;;56.08;29.52;;;;;;;;;;737728;187;915177;-76
2022/11/09 04:16:50;;;;;;;52.10;29.93;;;;;;;;;;732598;190;916440;-75
2022/11/09 04:19:15;;;;;;;50.10;28.13;;;;;;;;;;733310;188;912242;-75
2022/11/09 04:21:41;;;;;;;47.40;26.50;;;;;;;;;;734003;189;917508;-75
2022/11/09 04:24:07;;;;;;;49.97;25.50;;;;;;;;;;729358;190;806481;-75
2022/11/09 04:26:33;;;;;;;54.70;29.00;;;;;;;;;;734163;190;816606;-75
2022/11/09 04:28:59;;;;;;;52.73;28.03;;;;;;;;;;738218;188;946654;-75
2022/11/09 04:31:25;;;;;;;48.43;26.30;;;;;;;;;;734847;190;816012;-75
2022/11/09 04:33:51;;;;;;;53.47;28.00;;;;;;;;;;731562;190;918867;-74
2022/11/09 04:36:17;;;;;;;56.07;29.07;;;;;;;;;;736921;190;815901;-75
2022/11/09 04:38:43;;;;;;;44.27;26.20;;;;;;;;;;727722;191;918772;-74
2022/11/09 04:41:08;;;;;;;56.07;29.43;;;;;;;;;;738611;189;817014;-75
2022/11/09 04:43:34;;;;;;;54.07;29.43;;;;;;;;;;731056;189;892402;-75
2022/11/09 04:46:01;;;;;;;49.60;27.00;;;;;;;;;;736432;190;817216;-75
2022/11/09 04:48:27;;;;;;;52.47;27.00;;;;;;;;;;732705;189;913396;-75
2022/11/09 04:50:53;;;;;;;49.13;27.70;;;;;;;;;;731691;191;920126;-74
2022/11/09 04:53:19;;;;;;;49.90;25.53;;;;;;;;;;740246;188;922114;-76
2022/11/09 04:55:45;;;;;;;47.50;28.47;;;;;;;;;;732081;190;920169;-75
2022/11/09 04:58:10;;;;;;;50.57;27.30;;;;;;;;;;734752;188;916738;-75
2022/11/09 05:00:36;;;;;;;44.73;24.23;;;;;;;;;;736594;191;916840;-76
2022/11/09 05:03:02;;;;;;;46.10;26.83;;;;;;;;;;733987;190;812897;-76
2022/11/09 05:05:32;;;;;;;42.90;24.73;;;;;;;;;;728392;190;913500;-75
2022/11/09 05:07:54;;;;;;;44.27;26.30;;;;;;;;;;733330;191;918971;-75
2022/11/09 05:10:20;;;;;;;53.53;26.27;;;;;;;;;;738232;189;816654;-74
2022/11/09 05:12:45;;;;;;;47.93;25.53;;;;;;;;;;730254;190;920457;-75
2022/11/09 05:15:11;;;;;;;54.27;26.40;;;;;;;;;;727212;188;919392;-75
2022/11/09 05:17:37;;;;;;;44.63;25.37;;;;;;;;;;741156;191;717356;-76
2022/11/09 05:20:03;;;;;;;50.37;26.60;;;;;;;;;;737681;189;816032;-76
2022/11/09 05:25:01;;;;;;;49.03;26.53;;;;;;;;;;732313;188;917425;-75
2022/11/09 05:27:26;;;;;;;48.10;27.00;;;;;;;;;;736686;190;816747;-76
2022/11/09 05:29:52;;;;;;;50.90;28.63;;;;;;;;;;730066;188;919341;-75
2022/11/09 05:32:18;;;;;;;50.33;27.13;;;;;;;;;;730591;191;908852;-75
2022/11/09 05:34:44;;;;;;;53.33;27.63;;;;;;;;;;736370;189;816985;-75
2022/11/09 05:37:10;;;;;;;52.05;26.85;;;;;;;;;;729468;190;920165;-75
2022/11/09 05:39:36;;;;;;;53.47;28.10;;;;;;;;;;735539;188;921541;-76
2022/11/09 05:42:01;;;;;;;63.53;28.20;;;;;;;;;;737795;190;919561;-74
2022/11/09 05:44:27;;;;;;;51.53;27.57;;;;;;;;;;729564;190;919350;-77
2022/11/09 05:46:53;;;;;;;53.42;27.85;;;;;;;;;;729707;190;918554;-76
2022/11/09 05:49:19;;;;;;;47.13;27.48;;;;;;;;;;735087;190;1021255;-75
2022/11/09 05:51:45;;;;;;;51.93;28.60;;;;;;;;;;743634;187;918669;-76
2022/11/09 05:54:11;;;;;;;44.47;25.50;;;;;;;;;;737143;190;818221;-74
2022/11/09 05:56:37;;;;;;;51.47;29.70;;;;;;;;;;736566;191;921265;-75
2022/11/09 05:59:03;;;;;;;49.73;26.60;;;;;;;;;;737671;190;918316;-75
2022/11/09 06:01:29;;;;;;;54.23;27.70;;;;;;;;;;734609;191;820619;-75
2022/11/09 06:03:54;;;;;;;52.63;28.93;;;;;;;;;;734663;188;816421;-76
2022/11/09 06:06:20;;;;;;;48.60;28.23;;;;;;;;;;742002;189;816345;-75
2022/11/09 06:08:46;;;;;;;49.70;27.23;;;;;;;;;;734143;190;901037;-74
2022/11/09 06:11:12;;;;;;;54.70;27.57;;;;;;;;;;735497;190;816770;-75
2022/11/09 06:13:38;;;;;;;51.27;26.70;;;;;;;;;;736551;189;712873;-75
2022/11/09 06:16:04;;;;;;;51.53;27.00;;;;;;;;;;734027;190;919571;-74
2022/11/09 06:18:30;;;;;;;44.50;25.90;;;;;;;;;;730278;188;817952;-75
2022/11/09 06:20:56;;;;;;;45.37;27.07;;;;;;;;;;733341;190;916592;-75
2022/11/09 06:23:24;;;;;;;48.37;27.10;;;;;;;;;;733226;189;915743;-75
2022/11/09 06:25:50;;;;;;;51.77;27.67;;;;;;;;;;728185;189;933858;-75
2022/11/09 06:28:16;;;;;;;52.90;27.33;;;;;;;;;;731879;188;914908;-76
2022/11/09 06:30:42;;;;;;;45.13;27.10;;;;;;;;;;735836;191;914687;-74
2022/11/09 06:33:08;;;;;;;51.60;28.35;;;;;;;;;;706280;195;921341;-75
2022/11/09 06:35:33;;;;;;;54.10;26.50;;;;;;;;;;733901;191;929823;-75
2022/11/09 06:38:00;;;;;;;46.28;25.70;;;;;;;;;;734794;191;911789;-75
2022/11/09 06:40:26;;;;;;;51.10;27.80;;;;;;;;;;724873;191;918597;-74
2022/11/09 06:42:52;;;;;;;49.03;26.80;;;;;;;;;;726589;190;919572;-75
2022/11/09 06:45:18;;;;;;;48.30;25.80;;;;;;;;;;728816;190;919258;-75
2022/11/09 06:47:43;;;;;;;47.27;26.87;;;;;;;;;;727333;191;917975;-75
2022/11/09 06:50:11;;;;;;;48.47;26.30;;;;;;;;;;733357;188;918495;-75
2022/11/09 06:52:35;;;;;;;44.10;25.83;;;;;;;;;;732205;190;918664;-75
2022/11/09 06:55:01;;;;;;;46.97;26.30;;;;;;;;;;723870;194;920444;-75
2022/11/09 06:57:28;;;;;;;49.23;25.97;;;;;;;;;;728072;190;919333;-75
2022/11/09 06:59:54;;;;;;;40.37;24.37;;;;;;;;;;733230;189;919142;-75
2022/11/09 07:02:21;;;;;;;52.47;27.73;;;;;;;;;;738984;189;918549;-75
2022/11/09 07:04:46;;;;;;;45.30;24.57;;;;;;;;;;747761;183;817135;-74
2022/11/09 07:07:12;;;;;;;46.40;24.87;;;;;;;;;;733989;189;919328;-75
2022/11/09 07:09:38;;;;;;;44.00;25.67;;;;;;;;;;735722;188;919007;-75
2022/11/09 07:12:04;;;;;;;41.57;22.67;;;;;;;;;;740545;190;918738;-75
2022/11/09 07:14:30;;;;;;;40.25;24.70;;;;;;;;;;731845;187;915764;-75
2022/11/09 07:16:56;;;;;;;38.43;23.40;;;;;;;;;;736712;190;816883;-76
2022/11/09 07:19:23;;;;;;;43.47;24.43;;;;;;;;;;737780;188;918655;-75
2022/11/09 07:21:48;;;;;;;40.93;22.90;;;;;;;;;;706321;198;919449;-75
2022/11/09 07:24:14;;;;;;;39.50;23.17;;;;;;;;;;735904;187;917654;-75
2022/11/09 07:26:41;;;;;;;46.58;23.60;;;;;;;;;;734110;190;918451;-75
2022/11/09 07:29:07;;;;;;;35.83;20.47;;;;;;;;;;744959;186;918873;-75
2022/11/09 07:31:33;;;;;;;29.80;18.73;;;;;;;;;;732908;190;919324;-75
2022/11/09 07:34:03;;;;;;;32.23;19.10;;;;;;;;;;727728;190;900504;-75
2022/11/09 07:36:24;;;;;;;31.53;17.93;;;;;;;;;;735891;190;918742;-75
2022/11/09 07:38:50;;;;;;;35.33;21.97;;;;;;;;;;735647;189;918719;-74
2022/11/09 07:41:16;;;;;;;31.30;18.07;;;;;;;;;;723243;190;1020334;-75
2022/11/09 07:43:42;;;;;;;27.47;18.00;;;;;;;;;;732645;190;919368;-74
2022/11/09 07:46:08;;;;;;;24.98;17.50;;;;;;;;;;728517;191;918992;-75
2022/11/09 07:48:34;;;;;;;30.07;17.03;;;;;;;;;;728940;191;919233;-75
2022/11/09 07:50:59;;;;;;;26.80;15.93;;;;;;;;;;730496;191;867069;-75
2022/11/09 07:53:25;;;;;;;32.30;17.97;;;;;;;;;;727273;191;919251;-74
2022/11/09 07:55:55;;;;;;;25.00;17.30;;;;;;;;;;735704;190;919252;-75
2022/11/09 07:58:21;;;;;;;24.25;17.23;;;;;;;;;;728451;191;922809;-75
2022/11/09 08:00:47;;;;;;;26.60;16.47;;;;;;;;;;739313;190;918465;-75
2022/11/09 08:03:13;;;;;;;26.83;16.80;;;;;;;;;;730378;191;914401;-75
2022/11/09 08:05:39;;;;;;;24.33;15.73;;;;;;;;;;733613;190;919239;-75
2022/11/09 08:08:04;;;;;;;27.77;16.27;;;;;;;;;;741651;188;815790;-75
2022/11/09 08:10:30;;;;;;;27.33;17.13;;;;;;;;;;732922;190;918409;-74
2022/11/09 08:12:56;;;;;;;27.10;16.57;;;;;;;;;;730550;189;818165;-75
2022/11/09 08:15:22;;;;;;;28.30;17.70;;;;;;;;;;738032;189;919326;-75
2022/11/09 08:17:48;;;;;;;26.00;14.77;;;;;;;;;;730823;190;815739;-75
2022/11/09 08:20:14;;;;;;;25.35;16.67;;;;;;;;;;735449;190;918693;-75
2022/11/09 08:22:41;;;;;;;30.07;16.40;;;;;;;;;;726950;190;918841;-76
2022/11/09 08:25:07;;;;;;;24.13;15.77;;;;;;;;;;739872;188;916892;-75
2022/11/09 08:27:38;;;;;;;27.40;17.00;;;;;;;;;;732701;189;918927;-75
2022/11/09 08:29:58;;;;;;;26.50;15.93;;;;;;;;;;731819;187;919401;-75
2022/11/09 08:32:24;;;;;;;22.53;15.87;;;;;;;;;;733408;191;917558;-75
2022/11/09 08:34:50;;;;;;;25.10;14.30;;;;;;;;;;729881;190;919375;-75
2022/11/09 08:37:16;;;;;;;23.67;15.93;;;;;;;;;;733521;190;919491;-76
2022/11/09 08:39:42;;;;;;;25.87;16.10;;;;;;;;;;735456;190;816729;-74
2022/11/09 08:42:08;;;;;;;25.30;15.70;;;;;;;;;;742370;186;918143;-75
2022/11/09 08:44:34;;;;;;;25.47;16.20;;;;;;;;;;733155;189;919304;-75
2022/11/09 08:46:59;;;;;;;24.50;15.63;;;;;;;;;;728303;191;919179;-74
2022/11/09 08:49:25;;;;;;;27.27;14.53;;;;;;;;;;738455;191;919596;-76
2022/11/09 08:51:51;;;;;;;25.47;15.37;;;;;;;;;;702436;196;821963;-75
2022/11/09 08:54:17;;;;;;;23.63;14.07;;;;;;;;;;728020;190;816348;-74
2022/11/09 08:56:45;;;;;;;29.33;16.40;;;;;;;;;;739311;189;816138;-75
2022/11/09 08:59:09;;;;;;;25.43;14.37;;;;;;;;;;730933;190;910250;-74
2022/11/09 09:01:35;;;;;;;25.67;16.48;;;;;;;;;;730914;191;915232;-75
2022/11/09 09:04:00;;;;;;;22.60;13.20;;;;;;;;;;733903;190;913724;-75
2022/11/09 09:06:26;;;;;;;23.40;16.10;;;;;;;;;;729462;190;915476;-74
2022/11/09 09:08:52;;;;;;;24.07;15.60;;;;;;;;;;726094;188;919632;-75
2022/11/09 09:11:18;;;;;;;25.63;16.30;;;;;;;;;;728447;189;917001;-75
2022/11/09 09:13:44;;;;;;;30.27;18.07;;;;;;;;;;737343;189;917297;-75
2022/11/09 09:16:10;;;;;;;32.13;20.83;;;;;;;;;;734379;189;917874;-75
2022/11/09 09:18:36;;;;;;;32.97;20.17;;;;;;;;;;728680;189;919151;-75
2022/11/09 09:21:01;;;;;;;35.33;21.30;;;;;;;;;;739285;190;917437;-75
2022/11/09 09:23:27;;;;;;;36.63;21.40;;;;;;;;;;729089;190;918724;-75
2022/11/09 09:25:53;;;;;;;38.27;23.30;;;;;;;;;;733832;189;916560;-75
2022/11/09 09:28:19;;;;;;;40.07;24.30;;;;;;;;;;738953;190;915729;-77
2022/11/09 09:30:45;;;;;;;37.63;23.07;;;;;;;;;;729415;190;916794;-75
2022/11/09 09:33:11;;;;;;;39.77;23.53;;;;;;;;;;734630;190;905577;-75
2022/11/09 09:35:36;;;;;;;38.70;23.10;;;;;;;;;;735765;190;914120;-75
2022/11/09 09:38:02;;;;;;;38.13;20.80;;;;;;;;;;740449;188;919525;-75
2022/11/09 09:40:29;;;;;;;42.07;23.53;;;;;;;;;;733361;190;919293;-75
2022/11/09 09:42:55;;;;;;;41.07;23.17;;;;;;;;;;734992;190;817289;-75
2022/11/09 09:45:21;;;;;;;38.77;22.13;;;;;;;;;;737174;189;815430;-75
2022/11/09 09:47:52;;;;;;;42.23;21.70;;;;;;;;;;734922;189;816711;-75
2022/11/09 09:50:19;;;;;;;42.90;24.57;;;;;;;;;;734060;190;840694;-75
2022/11/09 09:52:45;;;;;;;38.40;22.20;;;;;;;;;;733532;191;912999;-75
2022/11/09 09:55:12;;;;;;;40.13;22.63;;;;;;;;;;734055;188;816156;-75
2022/11/09 09:57:37;;;;;;;43.00;24.63;;;;;;;;;;729866;190;919047;-75
2022/11/09 10:00:04;;;;;;;43.53;24.30;;;;;;;;;;733583;190;919651;-75
2022/11/09 10:02:30;;;;;;;41.93;22.20;;;;;;;;;;738206;190;918826;-75
2022/11/09 10:04:55;;;;;;;40.70;23.87;;;;;;;;;;732748;190;807984;-74
2022/11/09 10:07:21;;;;;;;44.47;24.70;;;;;;;;;;727510;189;919359;-75
2022/11/09 10:09:52;;;;;;;43.93;23.63;;;;;;;;;;732935;189;920607;-76
2022/11/09 10:12:21;;;;;;;42.87;24.73;;;;;;;;;;735361;191;917492;-75
2022/11/09 10:14:52;;;;;;;42.23;24.20;;;;;;;;;;725357;191;915009;-74
2022/11/09 10:17:20;;;;;;;37.90;21.67;;;;;;;;;;732370;191;918568;-75
2022/11/09 10:19:52;;;;;;;46.20;24.07;;;;;;;;;;734518;190;917467;-75
2022/11/09 10:22:19;;;;;;;43.63;23.40;;;;;;;;;;738705;187;918033;-75
2022/11/09 10:24:47;;;;;;;40.57;23.20;;;;;;;;;;734765;191;815936;-75
2022/11/09 10:27:17;;;;;;;40.73;22.47;;;;;;;;;;730196;191;917914;-75
2022/11/09 10:29:44;;;;;;;42.33;24.20;;;;;;;;;;727279;190;920437;-75
2022/11/09 10:32:13;;;;;;;37.40;24.63;;;;;;;;;;745560;187;815695;-75
2022/11/09 10:34:38;;;;;;;41.40;24.77;;;;;;;;;;733515;187;816945;-74
2022/11/09 10:37:09;;;;;;;49.87;27.23;;;;;;;;;;731752;190;918937;-75
2022/11/09 10:39:35;;;;;;;39.13;23.90;;;;;;;;;;739103;190;918379;-75
2022/11/09 10:42:01;;;;;;;43.70;24.40;;;;;;;;;;731552;190;816334;-74
2022/11/09 10:44:27;;;;;;;44.13;24.70;;;;;;;;;;733866;188;919153;-75
2022/11/09 10:46:58;;;;;;;42.08;22.45;;;;;;;;;;733833;190;1020995;-75
2022/11/09 10:49:24;;;;;;;40.63;24.13;;;;;;;;;;740407;190;809748;-74
2022/11/09 10:51:50;;;;;;;44.03;24.25;;;;;;;;;;731214;190;918276;-74
2022/11/09 10:54:18;;;;;;;47.67;23.67;;;;;;;;;;734287;188;918448;-75
2022/11/09 10:56:44;;;;;;;46.07;25.40;;;;;;;;;;743721;188;684340;-74
2022/11/09 10:59:15;;;;;;;47.37;27.50;;;;;;;;;;736656;186;918950;-75
2022/11/09 11:01:41;;;;;;;43.47;24.37;;;;;;;;;;731521;190;912726;-75
2022/11/09 11:04:12;;;;;;;45.93;25.03;;;;;;;;;;737995;188;814227;-75
2022/11/09 11:06:38;;;;;;;43.35;24.87;;;;;;;;;;733442;190;816148;-75
2022/11/09 11:09:19;;;;;;;39.43;23.57;;;;;;;;;;740188;186;914223;-75
2022/11/09 11:11:45;;;;;;;45.53;26.23;;;;;;;;;;731248;190;918163;-74
2022/11/09 11:14:11;;;;;;;45.63;23.23;;;;;;;;;;733594;191;919771;-74
2022/11/09 11:16:37;;;;;;;43.80;26.23;;;;;;;;;;727074;191;919752;-73
2022/11/09 11:19:02;;;;;;;44.40;25.60;;;;;;;;;;734423;191;917014;-74
2022/11/09 11:21:28;;;;;;;39.73;24.27;;;;;;;;;;704304;196;923675;-74
2022/11/09 11:24:05;;;;;;;44.33;24.10;;;;;;;;;;731711;190;820018;-74
2022/11/09 11:26:34;;;;;;;42.27;26.13;;;;;;;;;;731668;190;921337;-74
2022/11/09 11:29:00;;;;;;;49.20;26.07;;;;;;;;;;738569;190;815907;-75
2022/11/09 11:31:26;;;;;;;46.13;23.70;;;;;;;;;;733270;190;830296;-74
2022/11/09 11:33:52;;;;;;;37.23;22.17;;;;;;;;;;729739;191;919057;-74
2022/11/09 11:36:24;;;;;;;38.10;21.87;;;;;;;;;;737052;190;813892;-74
2022/11/09 11:38:50;;;;;;;44.03;23.70;;;;;;;;;;736794;190;923396;-74
2022/11/09 11:41:21;;;;;;;44.67;27.10;;;;;;;;;;729468;189;919546;-74
2022/11/09 11:43:48;;;;;;;43.33;24.15;;;;;;;;;;731410;190;923336;-74
2022/11/09 11:46:16;;;;;;;44.60;24.80;;;;;;;;;;739183;190;893874;-73
2022/11/09 11:48:44;;;;;;;36.33;20.50;;;;;;;;;;731948;188;919786;-74
2022/11/09 11:51:10;;;;;;;38.45;23.17;;;;;;;;;;735729;189;920028;-74
2022/11/09 11:53:41;;;;;;;41.00;23.57;;;;;;;;;;733220;187;918395;-74
2022/11/09 11:56:10;;;;;;;47.23;23.90;;;;;;;;;;733469;190;920395;-74
2022/11/09 11:58:53;;;;;;;38.50;21.30;;;;;;;;;;729914;190;918448;-74
2022/11/09 12:01:24;;;;;;;40.43;24.40;;;;;;;;;;724151;190;919085;-75
2022/11/09 12:03:53;;;;;;;39.10;22.50;;;;;;;;;;730247;190;920497;-75
2022/11/09 12:06:20;;;;;;;44.83;24.97;;;;;;;;;;730257;190;919117;-75
2022/11/09 12:08:48;;;;;;;39.20;23.43;;;;;;;;;;729773;190;917503;-75
2022/11/09 12:11:14;;;;;;;40.00;22.83;;;;;;;;;;727039;190;919230;-75
2022/11/09 12:13:40;;;;;;;47.57;24.17;;;;;;;;;;734002;188;916970;-75
2022/11/09 12:16:23;;;;;;;38.53;23.30;;;;;;;;;;732806;187;881126;-75
2022/11/09 12:18:53;;;;;;;36.13;23.27;;;;;;;;;;731678;189;817004;-75
2022/11/09 12:21:37;;;;;;;37.37;21.30;;;;;;;;;;733751;190;816795;-76
2022/11/09 12:24:20;;;;;;;50.60;26.60;;;;;;;;;;738570;190;931481;-74
2022/11/09 12:26:48;;;;;;;38.83;21.20;;;;;;;;;;730814;189;919715;-73
2022/11/09 12:29:30;;;;;;;41.30;24.43;;;;;;;;;;734273;190;714198;-73
2022/11/09 12:32:14;;;;;;;41.23;22.50;;;;;;;;;;735577;191;919852;-72
2022/11/09 12:34:42;;;;;;;42.42;25.65;;;;;;;;;;725615;191;918367;-73
2022/11/09 12:37:10;;;;;;;37.13;22.43;;;;;;;;;;728976;191;817707;-74
2022/11/09 12:39:45;;;;;;;43.73;23.37;;;;;;;;;;734739;190;901475;-74
2022/11/09 12:42:12;;;;;;;37.10;23.27;;;;;;;;;;733381;190;914546;-73
2022/11/09 12:44:39;;;;;;;39.95;23.35;;;;;;;;;;738175;190;899792;-74
2022/11/09 12:47:05;;;;;;;44.37;23.80;;;;;;;;;;723137;191;925409;-74
2022/11/09 12:49:34;;;;;;;38.67;24.77;;;;;;;;;;734573;190;808212;-74
2022/11/09 12:52:00;;;;;;;40.77;25.07;;;;;;;;;;736021;190;912250;-74
2022/11/09 12:54:26;;;;;;;36.77;21.83;;;;;;;;;;729167;190;818689;-74
2022/11/09 12:56:52;;;;;;;39.50;24.63;;;;;;;;;;733577;189;959411;-73
2022/11/09 12:59:34;;;;;;;44.80;24.00;;;;;;;;;;740556;188;909555;-76
2022/11/09 13:02:00;;;;;;;39.17;24.83;;;;;;;;;;741491;188;907860;-74
2022/11/09 13:04:26;;;;;;;44.83;23.07;;;;;;;;;;734231;190;812370;-75
2022/11/09 13:06:58;;;;;;;42.07;25.37;;;;;;;;;;737953;190;813636;-75
2022/11/09 13:09:24;;;;;;;45.47;24.87;;;;;;;;;;729652;187;817182;-74
2022/11/09 13:11:49;;;;;;;42.20;27.30;;;;;;;;;;735465;190;813722;-74
2022/11/09 13:14:36;;;;;;;44.10;25.33;;;;;;;;;;732237;190;915630;-74
2022/11/09 13:17:02;;;;;;;41.40;23.03;;;;;;;;;;731503;191;916188;-74
2022/11/09 13:19:49;;;;;;;44.60;23.40;;;;;;;;;;731254;188;916361;-74
2022/11/09 13:22:29;;;;;;;43.37;26.00;;;;;;;;;;731282;190;913233;-73
2022/11/09 13:24:55;;;;;;;42.83;24.37;;;;;;;;;;732471;188;915351;-75
2022/11/09 13:27:27;;;;;;;45.63;25.63;;;;;;;;;;735313;190;915022;-74
2022/11/09 13:29:53;;;;;;;50.50;24.43;;;;;;;;;;733855;191;918943;-75
2022/11/09 13:32:21;;;;;;;40.37;24.67;;;;;;;;;;729856;189;913564;-74
2022/11/09 13:34:48;;;;;;;42.77;22.23;;;;;;;;;;730900;190;913001;-74
2022/11/09 13:37:19;;;;;;;40.37;25.73;;;;;;;;;;729687;191;919373;-74
2022/11/09 13:39:45;;;;;;;39.77;23.70;;;;;;;;;;739732;190;816366;-73
2022/11/09 13:42:17;;;;;;;44.53;22.92;;;;;;;;;;728156;190;918046;-74
2022/11/09 13:44:43;;;;;;;42.40;25.53;;;;;;;;;;731789;189;916766;-74
2022/11/09 13:47:14;;;;;;;43.92;24.15;;;;;;;;;;732595;191;909841;-74
2022/11/09 13:49:40;;;;;;;38.97;23.43;;;;;;;;;;741213;188;815979;-74
2022/11/09 13:52:06;;;;;;;41.70;25.20;;;;;;;;;;729396;191;918497;-73
2022/11/09 13:54:32;;;;;;;42.70;25.13;;;;;;;;;;728228;190;1020927;-74
2022/11/09 13:56:58;;;;;;;40.03;23.77;;;;;;;;;;730587;190;816829;-74
2022/11/09 13:59:26;;;;;;;46.40;25.70;;;;;;;;;;733990;190;844368;-74
2022/11/09 14:01:52;;;;;;;42.63;25.80;;;;;;;;;;733408;190;1014472;-74
2022/11/09 14:04:21;;;;;;;42.97;24.57;;;;;;;;;;734924;188;933592;-74